createdAt,value
2019-02-14T00:01:22.379Z,91.73
2019-02-14T00:03:50.453Z,91.82
2019-02-14T00:06:18.507Z,92.03
2019-02-14T00:08:46.533Z,91.77
2019-02-14T00:11:14.473Z,91.78
2019-02-14T00:13:42.421Z,91.34
2019-02-14T00:16:10.246Z,91.39
2019-02-14T00:18:38.996Z,91.67
2019-02-14T00:21:06.784Z,91.28
2019-02-14T00:23:34.773Z,91.19
2019-02-14T00:26:02.846Z,91.46
2019-02-14T00:28:31.000Z,91.90
2019-02-14T00:30:59.574Z,92.06
2019-02-14T00:33:27.543Z,92.02
2019-02-14T00:35:55.439Z,91.53
2019-02-14T00:38:29.071Z,91.18
2019-02-14T00:40:56.973Z,91.69
2019-02-14T00:43:24.907Z,92.06
2019-02-14T00:45:52.832Z,91.19
2019-02-14T00:48:20.778Z,91.16
2019-02-14T00:50:48.724Z,91.37
2019-02-14T00:53:16.594Z,91.68
2019-02-14T00:55:44.566Z,91.26
2019-02-14T00:58:12.934Z,91.62
2019-02-14T01:00:40.934Z,91.18
2019-02-14T01:03:09.415Z,91.52
2019-02-14T01:05:37.170Z,91.57
2019-02-14T01:08:05.266Z,91.04
2019-02-14T01:10:33.217Z,91.37
2019-02-14T01:13:01.086Z,91.74
2019-02-14T01:15:29.871Z,91.56
2019-02-14T01:17:57.722Z,91.42
2019-02-14T01:20:25.707Z,91.61
2019-02-14T01:22:53.518Z,91.29
2019-02-14T01:25:21.477Z,91.53
2019-02-14T01:27:49.408Z,91.94
2019-02-14T01:30:17.466Z,91.60
2019-02-14T01:32:46.174Z,91.29
2019-02-14T01:35:14.164Z,91.09
2019-02-14T01:37:41.953Z,91.37
2019-02-14T01:40:14.144Z,91.53
2019-02-14T01:42:41.920Z,91.50
2019-02-14T01:45:10.435Z,91.36
2019-02-14T01:47:38.225Z,91.27
2019-02-14T01:50:07.359Z,91.21
2019-02-14T01:52:35.121Z,92.20
2019-02-14T01:55:03.096Z,92.31
2019-02-14T01:57:31.092Z,92.43
2019-02-14T01:59:58.946Z,92.14
2019-02-14T02:02:26.850Z,91.77
2019-02-14T02:04:55.422Z,92.36
2019-02-14T02:07:23.238Z,91.82
2019-02-14T02:09:51.207Z,92.89
2019-02-14T02:12:19.104Z,92.66
2019-02-14T02:14:48.072Z,92.25
2019-02-14T02:17:15.997Z,93.17
2019-02-14T02:19:43.870Z,94.34
2019-02-14T02:22:11.654Z,94.36
2019-02-14T02:24:39.561Z,93.97
2019-02-14T02:27:07.858Z,94.13
2019-02-14T02:29:35.665Z,94.68
2019-02-14T02:32:03.708Z,94.57
2019-02-14T02:34:31.623Z,94.99
2019-02-14T02:36:59.556Z,94.91
2019-02-14T02:39:27.419Z,94.83
2019-02-14T02:41:58.129Z,95.01
2019-02-14T02:44:26.009Z,95.26
2019-02-14T02:46:54.009Z,95.48
2019-02-14T02:49:21.914Z,95.36
2019-02-14T02:51:49.773Z,95.16
2019-02-14T02:54:17.995Z,95.41
2019-02-14T02:56:45.959Z,95.29
2019-02-14T02:59:14.319Z,95.88
2019-02-14T03:01:42.414Z,96.90
2019-02-14T03:04:10.224Z,96.15
2019-02-14T03:06:38.161Z,95.91
2019-02-14T03:09:06.400Z,96.74
2019-02-14T03:11:34.277Z,96.03
2019-02-14T03:14:02.080Z,95.58
2019-02-14T03:16:30.144Z,95.79
2019-02-14T03:18:57.955Z,95.37
2019-02-14T03:21:25.800Z,95.28
2019-02-14T03:23:53.701Z,95.38
2019-02-14T03:26:21.628Z,95.71
2019-02-14T03:28:49.398Z,95.23
2019-02-14T03:31:17.238Z,95.67
2019-02-14T03:33:45.165Z,95.29
2019-02-14T03:36:18.798Z,95.81
2019-02-14T03:38:42.680Z,95.31
2019-02-14T03:41:10.571Z,95.38
2019-02-14T03:43:38.508Z,95.11
2019-02-14T03:46:06.338Z,94.85
2019-02-14T03:48:34.148Z,95.22
2019-02-14T03:51:02.008Z,95.43
2019-02-14T03:53:30.030Z,95.27
2019-02-14T03:55:57.814Z,95.23
2019-02-14T03:58:25.834Z,95.79
2019-02-14T04:00:53.942Z,95.31
2019-02-14T04:03:21.888Z,94.66
2019-02-14T04:05:49.749Z,95.05
2019-02-14T04:08:17.778Z,95.12
2019-02-14T04:10:45.673Z,94.78
2019-02-14T04:13:14.429Z,95.20
2019-02-14T04:15:46.415Z,94.96
2019-02-14T04:18:14.368Z,94.86
2019-02-14T04:20:42.258Z,94.87
2019-02-14T04:23:10.102Z,95.44
2019-02-14T04:25:37.895Z,95.35
2019-02-14T04:28:05.741Z,94.71
2019-02-14T04:30:33.613Z,94.80
2019-02-14T04:33:01.578Z,95.04
2019-02-14T04:35:29.555Z,95.02
2019-02-14T04:37:57.415Z,95.19
2019-02-14T04:40:33.219Z,95.55
2019-02-14T04:42:55.082Z,96.01
2019-02-14T04:45:24.760Z,96.39
2019-02-14T04:47:52.624Z,96.12
2019-02-14T04:50:20.422Z,95.77
2019-02-14T04:52:48.472Z,95.79
2019-02-14T04:55:16.350Z,95.55
2019-02-14T04:57:44.205Z,95.65
2019-02-14T05:00:12.219Z,95.36
2019-02-14T05:02:40.024Z,95.76
2019-02-14T05:05:08.110Z,96.09
2019-02-14T05:07:35.998Z,96.48
2019-02-14T05:10:04.716Z,95.96
2019-02-14T05:12:32.490Z,96.19
2019-02-14T05:15:00.362Z,96.08
2019-02-14T05:17:39.338Z,96.02
2019-02-14T05:20:08.097Z,95.75
2019-02-14T05:22:35.956Z,97.05
2019-02-14T05:25:04.452Z,97.17
2019-02-14T05:27:32.381Z,97.06
2019-02-14T05:30:00.383Z,96.80
2019-02-14T05:32:28.201Z,96.73
2019-02-14T05:34:56.364Z,96.99
2019-02-14T05:37:24.230Z,96.98
2019-02-14T05:39:52.150Z,96.49
2019-02-14T05:42:20.027Z,96.35
2019-02-14T05:44:47.865Z,96.29
2019-02-14T05:47:15.785Z,96.49
2019-02-14T05:49:43.638Z,96.44
2019-02-14T05:52:11.433Z,96.17
2019-02-14T05:54:39.282Z,96.36
2019-02-14T05:57:07.151Z,96.36
2019-02-14T05:59:35.083Z,96.45
2019-02-14T06:02:02.939Z,96.02
2019-02-14T06:04:30.757Z,96.04
2019-02-14T06:07:01.203Z,96.25
2019-02-14T06:09:28.288Z,96.13
2019-02-14T06:11:56.232Z,96.46
2019-02-14T06:14:24.037Z,96.08
2019-02-14T06:16:51.901Z,95.95
2019-02-14T06:19:22.277Z,95.55
2019-02-14T06:21:50.790Z,95.37
2019-02-14T06:24:19.233Z,95.11
2019-02-14T06:26:47.151Z,95.28
2019-02-14T06:29:14.888Z,95.78
2019-02-14T06:31:42.732Z,95.91
2019-02-14T06:34:10.705Z,95.56
2019-02-14T06:36:39.045Z,95.89
2019-02-14T06:39:06.822Z,95.90
2019-02-14T06:41:34.628Z,96.22
2019-02-14T06:44:02.427Z,95.98
2019-02-14T06:46:30.310Z,95.85
2019-02-14T06:48:58.084Z,96.33
2019-02-14T06:51:26.033Z,96.44
2019-02-14T06:53:53.808Z,96.84
2019-02-14T06:56:21.634Z,96.65
2019-02-14T06:58:49.427Z,96.66
2019-02-14T07:01:18.167Z,96.64
2019-02-14T07:03:45.964Z,96.22
2019-02-14T07:06:13.924Z,95.95
2019-02-14T07:08:41.681Z,96.49
2019-02-14T07:11:10.210Z,96.17
2019-02-14T07:13:37.978Z,96.19
2019-02-14T07:16:06.739Z,96.59
2019-02-14T07:18:34.628Z,96.33
2019-02-14T07:21:02.578Z,96.58
2019-02-14T07:23:31.092Z,96.96
2019-02-14T07:25:59.021Z,97.11
2019-02-14T07:28:26.865Z,97.40
2019-02-14T07:30:54.767Z,96.73
2019-02-14T07:33:22.558Z,96.33
2019-02-14T07:35:50.497Z,96.03
2019-02-14T07:38:18.336Z,96.48
2019-02-14T07:40:46.121Z,96.49
2019-02-14T07:43:13.964Z,96.64
2019-02-14T07:45:43.038Z,96.95
2019-02-14T07:48:10.927Z,97.78
2019-02-14T07:50:38.885Z,97.48
2019-02-14T07:53:06.992Z,97.50
2019-02-14T07:55:35.374Z,97.01
2019-02-14T07:58:03.417Z,97.19
2019-02-14T08:00:32.001Z,97.21
2019-02-14T08:02:59.839Z,97.25
2019-02-14T08:05:27.708Z,97.94
2019-02-14T08:07:55.547Z,97.62
2019-02-14T08:10:23.597Z,97.37
2019-02-14T08:12:51.526Z,98.01
2019-02-14T08:15:19.921Z,97.67
2019-02-14T08:17:47.836Z,97.42
2019-02-14T08:20:15.627Z,97.33
2019-02-14T08:22:43.898Z,97.21
2019-02-14T08:25:12.167Z,97.00
2019-02-14T08:27:40.016Z,97.00
2019-02-14T08:30:10.009Z,97.04
2019-02-14T08:32:37.859Z,97.48
2019-02-14T08:35:06.678Z,97.16
2019-02-14T08:37:34.665Z,96.83
2019-02-14T08:40:03.418Z,96.96
2019-02-14T08:42:31.832Z,97.11
2019-02-14T08:44:59.812Z,97.17
2019-02-14T08:47:27.802Z,96.96
2019-02-14T08:49:55.725Z,96.94
2019-02-14T08:52:23.548Z,97.11
2019-02-14T08:54:51.314Z,97.20
2019-02-14T08:57:19.166Z,97.44
2019-02-14T08:59:47.064Z,97.26
2019-02-14T09:02:15.033Z,97.18
2019-02-14T09:04:45.825Z,97.05
2019-02-14T09:07:13.768Z,97.04
2019-02-14T09:09:41.671Z,97.22
2019-02-14T09:12:09.469Z,97.26
2019-02-14T09:14:37.576Z,97.41
2019-02-14T09:17:08.387Z,96.89
2019-02-14T09:19:36.837Z,97.54
2019-02-14T09:22:04.608Z,97.11
2019-02-14T09:24:32.549Z,97.17
2019-02-14T09:27:00.534Z,97.81
2019-02-14T09:29:28.966Z,98.29
2019-02-14T09:31:57.334Z,98.49
2019-02-14T09:34:25.305Z,98.37
2019-02-14T09:36:53.179Z,98.53
2019-02-14T09:39:21.133Z,98.61
2019-02-14T09:41:49.195Z,98.32
2019-02-14T09:44:17.129Z,98.02
2019-02-14T09:46:44.922Z,97.75
2019-02-14T09:49:12.892Z,98.09
2019-02-14T09:51:41.264Z,98.24
2019-02-14T09:54:09.215Z,98.10
2019-02-14T09:56:41.139Z,98.02
2019-02-14T09:59:09.301Z,97.78
2019-02-14T10:01:37.067Z,97.52
2019-02-14T10:04:05.605Z,96.55
2019-02-14T10:06:36.785Z,96.06
2019-02-14T10:09:06.217Z,95.68
2019-02-14T10:11:34.133Z,95.91
2019-02-14T10:14:03.635Z,96.21
2019-02-14T10:16:31.645Z,96.40
2019-02-14T10:37:35.108Z,92.91
2019-02-14T10:40:03.578Z,92.97
2019-02-14T10:42:33.355Z,94.45
2019-02-14T10:45:01.184Z,94.29
2019-02-14T10:47:29.127Z,94.76
2019-02-14T10:49:56.985Z,94.66
2019-02-14T10:52:24.762Z,94.68
2019-02-14T10:54:52.609Z,95.09
2019-02-14T10:57:20.504Z,94.85
2019-02-14T11:00:00.459Z,95.07
2019-02-14T11:02:28.312Z,95.84
2019-02-14T11:04:56.329Z,95.74
2019-02-14T11:07:24.224Z,95.80
2019-02-14T11:09:52.059Z,95.70
2019-02-14T11:12:21.803Z,95.90
2019-02-14T11:14:49.688Z,96.17
2019-02-14T11:17:17.613Z,96.06
2019-02-14T11:19:45.579Z,95.93
2019-02-14T11:22:13.382Z,95.81
2019-02-14T11:24:41.342Z,95.70
2019-02-14T11:27:09.236Z,95.50
2019-02-14T11:29:37.083Z,95.33
2019-02-14T11:32:04.845Z,95.26
2019-02-14T11:34:33.198Z,95.26
2019-02-14T11:37:01.108Z,95.34
2019-02-14T11:39:29.252Z,95.32
2019-02-14T11:41:57.018Z,95.26
2019-02-14T11:44:24.868Z,94.76
2019-02-14T11:46:52.653Z,94.62
2019-02-14T11:49:20.542Z,94.77
2019-02-14T11:51:48.444Z,94.89
2019-02-14T11:54:16.625Z,94.77
2019-02-14T11:56:45.213Z,94.76
2019-02-14T11:59:13.020Z,94.52
2019-02-14T12:01:55.623Z,94.55
2019-02-14T12:04:23.764Z,94.57
2019-02-14T12:06:51.771Z,94.44
2019-02-14T12:09:19.755Z,94.19
2019-02-14T12:11:47.526Z,94.47
2019-02-14T12:14:15.681Z,94.44
2019-02-14T12:16:43.678Z,94.18
2019-02-14T12:19:12.135Z,94.34
2019-02-14T12:21:40.064Z,94.42
2019-02-14T12:24:07.876Z,94.34
2019-02-14T12:26:35.720Z,93.96
2019-02-14T12:29:03.708Z,94.08
2019-02-14T12:31:31.625Z,94.04
2019-02-14T12:33:59.486Z,93.95
2019-02-14T12:36:27.336Z,93.83
2019-02-14T12:38:55.283Z,93.79
2019-02-14T12:41:23.116Z,93.86
2019-02-14T12:43:51.142Z,93.62
2019-02-14T12:46:19.091Z,93.77
2019-02-14T12:48:47.054Z,93.92
2019-02-14T12:51:14.966Z,93.77
2019-02-14T12:53:42.885Z,93.79
2019-02-14T12:56:10.943Z,93.57
2019-02-14T12:58:39.510Z,93.48
2019-02-14T13:01:08.059Z,93.67
2019-02-14T13:03:38.988Z,93.71
2019-02-14T13:06:06.970Z,93.47
2019-02-14T13:08:36.160Z,93.48
2019-02-14T13:11:04.794Z,93.47
2019-02-14T13:13:32.764Z,93.32
2019-02-14T13:16:00.815Z,93.50
2019-02-14T13:18:28.753Z,93.42
2019-02-14T13:20:56.794Z,93.37
2019-02-14T13:23:24.588Z,93.01
2019-02-14T13:25:52.554Z,92.86
2019-02-14T13:28:20.563Z,92.99
2019-02-14T13:30:49.328Z,93.10
2019-02-14T13:33:17.261Z,93.10
2019-02-14T13:35:45.394Z,93.18
2019-02-14T13:38:14.206Z,93.19
2019-02-14T13:40:42.727Z,92.94
2019-02-14T13:43:11.266Z,92.70
2019-02-14T13:45:39.123Z,92.66
2019-02-14T13:48:07.029Z,92.71
2019-02-14T13:50:34.999Z,92.76
2019-02-14T13:53:02.886Z,92.80
2019-02-14T13:55:30.842Z,92.68
2019-02-14T13:57:58.643Z,92.40
2019-02-14T14:00:27.134Z,92.29
2019-02-14T14:02:54.903Z,92.31
2019-02-14T14:05:36.836Z,92.21
2019-02-14T14:08:04.619Z,92.16
2019-02-14T14:10:32.890Z,92.12
2019-02-14T14:13:00.722Z,92.00
2019-02-14T14:15:28.536Z,91.90
2019-02-14T14:17:56.427Z,91.89
2019-02-14T14:20:24.340Z,92.11
2019-02-14T14:22:52.260Z,92.06
2019-02-14T14:25:20.059Z,92.08
2019-02-14T14:27:47.991Z,92.09
2019-02-14T14:30:16.095Z,91.83
2019-02-14T14:32:44.865Z,91.83
2019-02-14T14:35:12.850Z,91.85
2019-02-14T14:37:40.816Z,91.94
2019-02-14T14:40:09.800Z,91.92
2019-02-14T14:43:04.537Z,91.57
2019-02-14T14:46:07.292Z,91.64
2019-02-14T14:48:42.309Z,91.47
2019-02-14T14:51:10.405Z,91.52
2019-02-14T14:53:38.273Z,91.68
2019-02-14T14:56:06.842Z,91.63
2019-02-14T14:58:34.771Z,91.81
2019-02-14T15:01:03.117Z,91.77
2019-02-14T15:03:36.491Z,91.63
2019-02-14T15:06:04.552Z,91.60
2019-02-14T15:08:32.490Z,91.45
2019-02-14T15:11:00.374Z,91.31
2019-02-14T15:13:28.578Z,91.19
2019-02-14T15:15:56.558Z,95.19
2019-02-14T15:18:24.528Z,92.18
2019-02-14T15:20:52.752Z,87.72
2019-02-14T15:23:20.689Z,87.74
2019-02-14T15:25:48.686Z,87.99
2019-02-14T15:28:17.616Z,88.28
2019-02-14T15:30:46.208Z,88.65
2019-02-14T15:33:14.028Z,88.72
2019-02-14T15:35:42.000Z,88.93
2019-02-14T15:38:11.866Z,89.07
2019-02-14T15:40:39.717Z,89.12
2019-02-14T15:43:07.665Z,89.23
2019-02-14T15:45:36.179Z,89.19
2019-02-14T15:48:04.141Z,89.12
2019-02-14T15:50:32.279Z,89.41
2019-02-14T15:53:00.132Z,89.65
2019-02-14T15:55:28.019Z,89.65
2019-02-14T15:57:55.872Z,89.65
2019-02-14T16:00:23.945Z,89.63
2019-02-14T16:02:52.533Z,89.55
2019-02-14T16:05:20.859Z,89.51
2019-02-14T16:07:48.859Z,89.58
2019-02-14T16:10:18.767Z,89.59
2019-02-14T16:12:46.542Z,89.49
2019-02-14T16:15:15.218Z,89.58
2019-02-14T16:17:43.242Z,89.72
2019-02-14T16:20:12.232Z,89.99
2019-02-14T16:22:41.909Z,90.07
2019-02-14T16:25:10.034Z,89.93
2019-02-14T16:27:37.869Z,89.69
2019-02-14T16:30:07.706Z,89.52
2019-02-14T16:32:36.828Z,89.10
2019-02-14T16:35:05.097Z,89.53
2019-02-14T16:37:32.911Z,89.24
2019-02-14T16:40:00.823Z,89.07
2019-02-14T16:42:28.904Z,89.18
2019-02-14T16:44:56.821Z,89.31
2019-02-14T16:47:25.083Z,89.31
2019-02-14T16:49:52.989Z,89.33
2019-02-14T16:52:21.462Z,89.26
2019-02-14T16:54:49.377Z,89.31
2019-02-14T16:57:17.128Z,89.61
2019-02-14T16:59:51.436Z,89.11
2019-02-14T17:02:19.341Z,89.11
2019-02-14T17:04:47.201Z,89.11
2019-02-14T17:07:15.005Z,89.10
2019-02-14T17:09:42.939Z,89.15
2019-02-14T17:12:18.569Z,89.12
2019-02-14T17:14:46.423Z,89.00
2019-02-14T17:17:14.394Z,89.09
2019-02-14T17:19:42.466Z,89.00
2019-02-14T17:22:10.435Z,88.97
2019-02-14T17:24:38.270Z,89.05
2019-02-14T17:27:06.031Z,89.03
2019-02-14T17:29:33.970Z,88.97
2019-02-14T17:32:01.740Z,88.79
2019-02-14T17:34:29.683Z,88.78
2019-02-14T17:36:57.536Z,88.81
2019-02-14T17:39:25.493Z,88.77
2019-02-14T17:41:53.272Z,88.81
2019-02-14T17:44:21.126Z,88.76
2019-02-14T17:46:48.972Z,88.70
2019-02-14T17:49:17.383Z,88.60
2019-02-14T17:51:45.224Z,88.49
2019-02-14T17:54:13.113Z,88.60
2019-02-14T17:56:41.060Z,88.47
2019-02-14T17:59:08.864Z,88.32
2019-02-14T18:01:37.082Z,88.27
2019-02-14T18:04:14.151Z,88.26
2019-02-14T18:06:42.096Z,88.20
2019-02-14T18:09:10.037Z,88.02
2019-02-14T18:11:37.997Z,87.86
2019-02-14T18:14:05.931Z,87.87
2019-02-14T18:16:33.876Z,87.70
2019-02-14T18:19:02.545Z,87.59
2019-02-14T18:21:30.977Z,87.60
2019-02-14T18:23:58.868Z,87.41
2019-02-14T18:26:26.743Z,87.45
2019-02-14T18:28:54.738Z,86.70
2019-02-14T18:31:22.716Z,86.98
2019-02-14T18:33:50.565Z,86.97
2019-02-14T18:36:18.346Z,86.83
2019-02-14T18:38:46.334Z,86.68
2019-02-14T18:41:14.170Z,86.89
2019-02-14T18:43:41.969Z,86.64
2019-02-14T18:46:09.809Z,86.54
2019-02-14T18:48:37.916Z,86.68
2019-02-14T18:51:06.884Z,86.83
2019-02-14T18:53:34.660Z,85.78
2019-02-14T18:56:02.478Z,86.37
2019-02-14T18:58:31.180Z,86.52
2019-02-14T19:00:59.203Z,86.54
2019-02-14T19:03:27.787Z,86.43
2019-02-14T19:05:55.737Z,86.33
2019-02-14T19:08:23.522Z,85.98
2019-02-14T19:10:51.491Z,86.07
2019-02-14T19:13:19.343Z,86.07
2019-02-14T19:15:47.166Z,85.88
2019-02-14T19:18:15.949Z,85.95
2019-02-14T19:20:43.852Z,85.93
2019-02-14T19:23:23.085Z,85.85
2019-02-14T19:25:41.665Z,85.54
2019-02-14T19:28:09.412Z,85.66
2019-02-14T19:30:37.843Z,85.67
2019-02-14T19:33:05.727Z,85.69
2019-02-14T19:35:33.577Z,85.63
2019-02-14T19:38:01.469Z,85.71
2019-02-14T19:40:29.291Z,85.73
2019-02-14T19:42:57.041Z,85.84
2019-02-14T19:45:24.977Z,85.93
2019-02-14T19:47:52.790Z,85.83
2019-02-14T19:50:20.694Z,85.95
2019-02-14T19:52:48.440Z,86.00
2019-02-14T19:55:16.235Z,85.99
2019-02-14T19:57:44.444Z,85.93
2019-02-14T20:00:12.525Z,85.88
2019-02-14T20:02:40.489Z,85.90
2019-02-14T20:05:08.964Z,85.85
2019-02-14T20:07:36.935Z,85.85
2019-02-14T20:10:05.824Z,85.86
2019-02-14T20:12:33.613Z,85.52
2019-02-14T20:15:01.666Z,85.62
2019-02-14T20:17:31.687Z,85.67
2019-02-14T20:19:59.650Z,85.55
2019-02-14T20:22:27.717Z,85.48
2019-02-14T20:24:55.507Z,85.48
2019-02-14T20:27:23.634Z,85.32
2019-02-14T20:29:51.417Z,85.34
2019-02-14T20:32:20.527Z,85.43
2019-02-14T20:34:48.343Z,85.49
2019-02-14T20:37:16.890Z,85.46
2019-02-14T20:39:44.838Z,85.43
2019-02-14T20:42:12.817Z,85.41
2019-02-14T20:44:40.763Z,85.47
2019-02-14T20:47:09.204Z,85.46
2019-02-14T20:49:50.170Z,85.38
2019-02-14T20:52:18.229Z,85.35
2019-02-14T20:54:46.259Z,85.25
2019-02-14T20:57:14.726Z,85.18
2019-02-14T21:00:25.559Z,85.06
2019-02-14T21:02:53.470Z,84.97
2019-02-14T21:05:21.348Z,84.87
2019-02-14T21:07:49.276Z,84.80
2019-02-14T21:10:17.743Z,84.72
2019-02-14T21:12:45.590Z,84.74
2019-02-14T21:15:14.347Z,84.64
2019-02-14T21:17:42.402Z,84.58
2019-02-14T21:20:10.418Z,84.82
2019-02-14T21:22:38.257Z,84.89
2019-02-14T21:25:07.027Z,85.39
2019-02-14T21:27:35.384Z,84.91
2019-02-14T21:30:03.543Z,84.83
2019-02-14T21:32:31.442Z,84.78
2019-02-14T21:34:59.337Z,84.85
2019-02-14T21:37:27.160Z,84.91
2019-02-14T21:39:55.842Z,84.95
2019-02-14T21:42:28.901Z,84.94
2019-02-14T21:44:53.665Z,85.08
2019-02-14T21:47:21.588Z,85.09
2019-02-14T21:49:49.367Z,85.01
2019-02-14T21:52:19.095Z,85.08
2019-02-14T21:54:46.930Z,85.19
2019-02-14T21:57:14.831Z,85.23
2019-02-14T21:59:44.694Z,85.17
2019-02-14T22:02:14.979Z,85.27
2019-02-14T22:04:42.825Z,85.25
2019-02-14T22:07:10.751Z,85.34
2019-02-14T22:09:38.615Z,85.29
2019-02-14T22:12:06.543Z,85.26
2019-02-14T22:14:34.330Z,85.30
2019-02-14T22:17:02.630Z,85.25
2019-02-14T22:19:30.392Z,85.29
2019-02-14T22:21:58.299Z,85.42
2019-02-14T22:24:26.070Z,85.38
2019-02-14T22:26:54.008Z,85.34
2019-02-14T22:29:21.775Z,85.40
2019-02-14T22:31:49.622Z,85.35
2019-02-14T22:34:17.491Z,85.35
2019-02-14T22:36:45.421Z,85.32
2019-02-14T22:39:13.407Z,85.31
2019-02-14T22:41:43.221Z,85.24
2019-02-14T22:44:11.203Z,85.17
2019-02-14T22:46:39.875Z,85.22
2019-02-14T22:49:07.686Z,85.28
2019-02-14T22:51:35.490Z,85.29
2019-02-14T22:54:03.757Z,85.38
2019-02-14T22:56:31.516Z,85.33
2019-02-14T22:58:59.336Z,85.18
2019-02-14T23:01:27.189Z,85.34
2019-02-14T23:03:55.105Z,85.26
2019-02-14T23:06:23.099Z,85.37
2019-02-14T23:08:51.120Z,85.36
2019-02-14T23:11:19.003Z,85.31
2019-02-14T23:13:46.924Z,85.30
